createdAt,value
2022-11-27T00:00:39.047Z,90.83
2022-11-27T00:01:39.058Z,90.66
2022-11-27T00:02:40.714Z,90.45
2022-11-27T00:03:39.238Z,90.66
2022-11-27T00:04:39.052Z,90.83
2022-11-27T00:05:39.015Z,90.41
2022-11-27T00:06:39.029Z,90.56
2022-11-27T00:07:39.040Z,90.56
2022-11-27T00:08:39.137Z,90.25
2022-11-27T00:09:39.199Z,90.66
2022-11-27T00:10:39.133Z,90.66
2022-11-27T00:11:39.004Z,89.32
2022-11-27T00:12:38.990Z,89.11
2022-11-27T00:13:38.980Z,89.62
2022-11-27T00:14:39.072Z,89.11
2022-11-27T00:15:38.979Z,89.52
2022-11-27T00:16:39.083Z,89.62
2022-11-27T00:17:38.936Z,90.04
2022-11-27T00:18:38.960Z,89.11
2022-11-27T00:19:39.337Z,89.62
2022-11-27T00:20:39.020Z,89.83
2022-11-27T00:21:38.966Z,89.83
2022-11-27T00:22:38.906Z,89.94
2022-11-27T00:23:38.917Z,89.42
2022-11-27T00:24:39.178Z,89.42
2022-11-27T00:25:38.908Z,89.62
2022-11-27T00:26:38.930Z,90.56
2022-11-27T00:27:38.902Z,90.77
2022-11-27T00:28:38.876Z,90.66
2022-11-27T00:29:38.930Z,90.56
2022-11-27T00:30:38.851Z,89.52
2022-11-27T00:31:38.862Z,89.52
2022-11-27T00:32:39.185Z,89.59
2022-11-27T00:33:38.829Z,89.42
2022-11-27T00:34:39.124Z,89.42
2022-11-27T00:35:38.819Z,90.04
2022-11-27T00:36:39.275Z,90.45
2022-11-27T00:37:38.880Z,90.52
2022-11-27T00:38:39.352Z,90.10
2022-11-27T00:39:38.792Z,89.73
2022-11-27T00:40:38.840Z,89.83
2022-11-27T00:41:38.773Z,90.14
2022-11-27T00:42:38.774Z,89.59
2022-11-27T00:43:44.062Z,89.52
2022-11-27T00:44:40.184Z,90.45
2022-11-27T00:45:38.855Z,90.25
2022-11-27T00:46:38.817Z,91.07
2022-11-27T00:47:38.738Z,90.10
2022-11-27T00:48:38.849Z,90.31
2022-11-27T00:49:38.729Z,90.72
2022-11-27T00:50:38.763Z,90.35
2022-11-27T00:51:38.715Z,90.83
2022-11-27T00:52:38.699Z,89.79
2022-11-27T00:53:38.754Z,90.25
2022-11-27T00:54:39.096Z,90.04
2022-11-27T00:55:38.681Z,90.97
2022-11-27T00:56:38.871Z,90.56
2022-11-27T00:57:38.674Z,90.66
2022-11-27T00:58:38.650Z,89.73
2022-11-27T00:59:38.654Z,89.62
2022-11-27T01:00:38.641Z,90.83
2022-11-27T01:01:38.689Z,90.56
2022-11-27T01:02:38.705Z,90.52
2022-11-27T01:03:38.642Z,90.56
2022-11-27T01:04:39.019Z,90.66
2022-11-27T01:05:38.605Z,89.52
2022-11-27T01:06:38.618Z,90.66
2022-11-27T01:07:38.746Z,90.66
2022-11-27T01:08:38.648Z,90.56
2022-11-27T01:09:38.638Z,90.66
2022-11-27T01:10:38.576Z,90.66
2022-11-27T01:11:38.581Z,90.56
2022-11-27T01:12:38.616Z,90.77
2022-11-27T01:13:38.544Z,90.52
2022-11-27T01:14:39.059Z,90.35
2022-11-27T01:15:38.635Z,90.31
2022-11-27T01:16:42.668Z,90.20
2022-11-27T01:17:38.591Z,90.87
2022-11-27T01:18:38.519Z,91.17
2022-11-27T01:19:38.528Z,90.87
2022-11-27T01:20:38.707Z,90.97
2022-11-27T01:21:38.500Z,90.87
2022-11-27T01:22:38.502Z,90.97
2022-11-27T01:23:38.615Z,90.72
2022-11-27T01:24:38.817Z,90.62
2022-11-27T01:25:38.519Z,90.66
2022-11-27T01:26:38.496Z,90.52
2022-11-27T01:27:38.457Z,90.00
2022-11-27T01:28:38.503Z,89.94
2022-11-27T01:29:38.426Z,90.77
2022-11-27T01:30:38.424Z,90.87
2022-11-27T01:31:38.551Z,91.13
2022-11-27T01:32:38.766Z,90.72
2022-11-27T01:33:38.435Z,90.87
2022-11-27T01:34:38.778Z,90.31
2022-11-27T01:35:38.401Z,91.38
2022-11-27T01:36:38.531Z,91.13
2022-11-27T01:37:38.390Z,91.07
2022-11-27T01:38:38.419Z,91.03
2022-11-27T01:39:38.500Z,91.59
2022-11-27T01:40:38.398Z,90.97
2022-11-27T01:41:38.387Z,91.38
2022-11-27T01:42:38.366Z,91.69
2022-11-27T01:43:38.348Z,91.65
2022-11-27T01:44:38.729Z,91.49
2022-11-27T01:45:38.348Z,91.44
2022-11-27T01:46:38.407Z,90.93
2022-11-27T01:47:38.400Z,90.83
2022-11-27T01:48:38.321Z,91.59
2022-11-27T01:49:38.290Z,91.24
2022-11-27T01:50:38.347Z,91.07
2022-11-27T01:51:38.306Z,91.24
2022-11-27T01:52:38.410Z,91.55
2022-11-27T01:53:38.279Z,91.55
2022-11-27T01:54:38.695Z,91.59
2022-11-27T01:55:38.328Z,91.55
2022-11-27T01:56:38.331Z,91.59
2022-11-27T01:57:38.244Z,91.49
2022-11-27T01:58:38.253Z,91.49
2022-11-27T01:59:38.237Z,91.49
2022-11-27T02:00:38.355Z,92.07
2022-11-27T02:01:38.258Z,91.59
2022-11-27T02:02:38.347Z,91.55
2022-11-27T02:03:38.255Z,91.65
2022-11-27T02:04:38.628Z,91.69
2022-11-27T02:05:38.299Z,91.75
2022-11-27T02:06:38.225Z,92.07
2022-11-27T02:07:38.276Z,92.11
2022-11-27T02:08:38.418Z,92.11
2022-11-27T02:09:38.205Z,92.21
2022-11-27T02:10:38.179Z,92.27
2022-11-27T02:11:38.302Z,92.11
2022-11-27T02:12:38.197Z,91.49
2022-11-27T02:13:38.153Z,91.90
2022-11-27T02:14:38.531Z,91.69
2022-11-27T02:15:38.163Z,91.17
2022-11-27T02:16:38.199Z,91.38
2022-11-27T02:17:38.092Z,90.87
2022-11-27T02:18:38.099Z,91.69
2022-11-27T02:19:38.090Z,91.01
2022-11-27T02:20:38.113Z,91.59
2022-11-27T02:21:38.095Z,91.69
2022-11-27T02:22:38.086Z,91.28
2022-11-27T02:23:38.068Z,91.28
2022-11-27T02:24:39.358Z,91.17
2022-11-27T02:25:38.055Z,90.77
2022-11-27T02:26:38.112Z,90.87
2022-11-27T02:27:38.095Z,91.69
2022-11-27T02:28:38.048Z,91.49
2022-11-27T02:29:38.017Z,91.49
2022-11-27T02:30:38.027Z,91.90
2022-11-27T02:31:38.195Z,92.15
2022-11-27T02:32:38.183Z,93.04
2022-11-27T02:33:38.008Z,93.14
2022-11-27T02:34:38.285Z,92.72
2022-11-27T02:35:38.082Z,92.15
2022-11-27T02:36:38.006Z,92.25
2022-11-27T02:37:37.980Z,92.15
2022-11-27T02:38:38.244Z,92.05
2022-11-27T02:39:37.985Z,92.25
2022-11-27T02:40:38.050Z,91.94
2022-11-27T02:41:37.973Z,92.25
2022-11-27T02:42:38.013Z,93.23
2022-11-27T02:43:38.034Z,93.12
2022-11-27T02:44:38.460Z,93.12
2022-11-27T02:45:37.950Z,93.23
2022-11-27T02:46:37.963Z,92.87
2022-11-27T02:47:37.889Z,92.09
2022-11-27T02:48:38.007Z,92.81
2022-11-27T02:49:37.866Z,92.40
2022-11-27T02:50:37.921Z,92.19
2022-11-27T02:51:38.015Z,92.30
2022-11-27T02:52:37.877Z,91.88
2022-11-27T02:53:37.926Z,91.99
2022-11-27T02:54:38.148Z,92.19
2022-11-27T02:55:37.852Z,93.12
2022-11-27T02:56:39.944Z,92.81
2022-11-27T02:57:37.818Z,92.09
2022-11-27T02:58:37.875Z,91.88
2022-11-27T02:59:38.922Z,91.67
2022-11-27T03:00:37.848Z,92.61
2022-11-27T03:01:37.870Z,92.76
2022-11-27T03:02:38.907Z,93.23
2022-11-27T03:03:37.765Z,92.30
2022-11-27T03:04:37.889Z,92.19
2022-11-27T03:05:37.773Z,92.24
2022-11-27T03:06:37.777Z,93.06
2022-11-27T03:07:38.882Z,92.91
2022-11-27T03:08:37.803Z,91.99
2022-11-27T03:09:37.841Z,92.24
2022-11-27T03:10:37.875Z,91.61
2022-11-27T03:11:37.764Z,91.82
2022-11-27T03:12:37.739Z,91.30
2022-11-27T03:13:37.747Z,91.51
2022-11-27T03:14:43.236Z,91.61
2022-11-27T03:15:38.960Z,91.20
2022-11-27T03:16:37.691Z,91.30
2022-11-27T03:17:37.690Z,90.89
2022-11-27T03:18:37.706Z,90.26
2022-11-27T03:19:37.687Z,90.89
2022-11-27T03:20:37.703Z,91.30
2022-11-27T03:21:37.707Z,90.89
2022-11-27T03:22:37.654Z,91.09
2022-11-27T03:23:37.776Z,90.99
2022-11-27T03:24:37.909Z,90.26
2022-11-27T03:25:37.675Z,90.58
2022-11-27T03:26:37.706Z,90.53
2022-11-27T03:27:37.605Z,91.09
2022-11-27T03:28:37.586Z,89.96
2022-11-27T03:29:37.595Z,90.99
2022-11-27T03:30:37.597Z,90.26
2022-11-27T03:31:37.744Z,90.47
2022-11-27T03:32:37.640Z,90.53
2022-11-27T03:33:37.567Z,90.64
2022-11-27T03:34:37.786Z,90.68
2022-11-27T03:35:37.545Z,90.47
2022-11-27T03:36:37.561Z,91.09
2022-11-27T03:37:37.563Z,90.89
2022-11-27T03:38:37.568Z,91.09
2022-11-27T03:39:37.565Z,90.68
2022-11-27T03:40:37.526Z,90.68
2022-11-27T03:41:37.527Z,90.44
2022-11-27T03:42:37.509Z,90.47
2022-11-27T03:43:37.543Z,90.68
2022-11-27T03:44:37.747Z,90.68
2022-11-27T03:45:37.500Z,90.89
2022-11-27T03:46:37.576Z,90.58
2022-11-27T03:47:42.615Z,90.37
2022-11-27T03:48:38.526Z,90.58
2022-11-27T03:49:37.456Z,90.53
2022-11-27T03:50:37.510Z,90.58
2022-11-27T03:51:37.474Z,90.44
2022-11-27T03:52:37.451Z,90.53
2022-11-27T03:53:37.436Z,91.16
2022-11-27T03:54:37.581Z,90.74
2022-11-27T03:55:37.426Z,90.64
2022-11-27T03:56:37.466Z,90.78
2022-11-27T03:57:37.434Z,90.78
2022-11-27T03:58:37.414Z,90.89
2022-11-27T03:59:37.417Z,90.89
2022-11-27T04:00:37.376Z,90.89
2022-11-27T04:01:37.416Z,90.68
2022-11-27T04:02:37.423Z,90.33
2022-11-27T04:03:37.428Z,90.37
2022-11-27T04:04:43.233Z,91.05
2022-11-27T04:05:38.441Z,91.47
2022-11-27T04:06:37.350Z,91.36
2022-11-27T04:07:37.381Z,91.05
2022-11-27T04:08:37.393Z,90.64
2022-11-27T04:09:37.346Z,90.68
2022-11-27T04:10:37.355Z,90.95
2022-11-27T04:11:37.305Z,90.64
2022-11-27T04:12:37.329Z,90.37
2022-11-27T04:13:37.301Z,91.20
2022-11-27T04:14:37.570Z,91.61
2022-11-27T04:15:37.323Z,91.05
2022-11-27T04:16:37.331Z,90.99
2022-11-27T04:17:37.280Z,91.47
2022-11-27T04:18:37.252Z,91.09
2022-11-27T04:19:37.273Z,91.05
2022-11-27T04:20:37.294Z,91.36
2022-11-27T04:21:37.293Z,91.67
2022-11-27T04:22:37.267Z,91.88
2022-11-27T04:23:37.225Z,91.36
2022-11-27T04:24:37.354Z,91.67
2022-11-27T04:25:37.228Z,90.84
2022-11-27T04:26:37.267Z,91.47
2022-11-27T04:27:37.201Z,91.16
2022-11-27T04:28:37.203Z,91.78
2022-11-27T04:29:37.198Z,91.57
2022-11-27T04:30:37.180Z,91.41
2022-11-27T04:31:37.231Z,91.99
2022-11-27T04:32:37.239Z,91.57
2022-11-27T04:33:37.148Z,91.67
2022-11-27T04:34:37.171Z,91.72
2022-11-27T04:35:37.162Z,92.19
2022-11-27T04:36:39.404Z,93.12
2022-11-27T04:37:37.166Z,93.33
2022-11-27T04:38:37.188Z,92.19
2022-11-27T04:39:37.146Z,91.67
2022-11-27T04:40:37.101Z,91.57
2022-11-27T04:41:37.113Z,91.88
2022-11-27T04:42:37.093Z,92.40
2022-11-27T04:43:37.117Z,93.12
2022-11-27T04:44:37.266Z,92.81
2022-11-27T04:45:37.127Z,92.81
2022-11-27T04:46:37.157Z,93.12
2022-11-27T04:47:37.051Z,92.91
2022-11-27T04:48:37.080Z,92.91
2022-11-27T04:49:37.029Z,93.23
2022-11-27T04:50:37.310Z,92.91
2022-11-27T04:51:37.023Z,92.91
2022-11-27T04:52:37.021Z,92.91
2022-11-27T04:53:37.082Z,93.23
2022-11-27T04:54:37.006Z,92.91
2022-11-27T04:55:37.021Z,93.33
2022-11-27T04:56:37.043Z,93.23
2022-11-27T04:57:36.984Z,93.23
2022-11-27T04:58:37.005Z,93.64
2022-11-27T04:59:37.014Z,94.16
2022-11-27T05:00:36.980Z,93.43
2022-11-27T05:01:36.960Z,93.74
2022-11-27T05:02:37.039Z,94.06
2022-11-27T05:03:36.976Z,94.16
2022-11-27T05:04:36.958Z,94.26
2022-11-27T05:05:36.942Z,94.47
2022-11-27T05:06:36.916Z,93.91
2022-11-27T05:07:37.021Z,93.95
2022-11-27T05:08:36.978Z,93.91
2022-11-27T05:09:36.965Z,93.29
2022-11-27T05:10:36.913Z,94.01
2022-11-27T05:11:36.905Z,94.12
2022-11-27T05:12:36.908Z,94.37
2022-11-27T05:13:36.876Z,94.22
2022-11-27T05:14:36.930Z,94.06
2022-11-27T05:15:36.878Z,94.26
2022-11-27T05:16:36.909Z,94.22
2022-11-27T05:17:36.839Z,94.22
2022-11-27T05:18:36.848Z,94.01
2022-11-27T05:19:36.844Z,93.91
2022-11-27T05:20:36.863Z,93.87
2022-11-27T05:21:36.822Z,93.60
2022-11-27T05:22:36.832Z,93.76
2022-11-27T05:23:36.834Z,93.45
2022-11-27T05:24:36.790Z,93.60
2022-11-27T05:25:36.863Z,93.49
2022-11-27T05:26:36.811Z,93.39
2022-11-27T05:27:36.779Z,94.22
2022-11-27T05:28:36.777Z,94.01
2022-11-27T05:29:36.750Z,94.43
2022-11-27T05:30:36.755Z,94.84
2022-11-27T05:31:36.794Z,94.43
2022-11-27T05:32:36.797Z,94.63
2022-11-27T05:33:36.719Z,94.28
2022-11-27T05:34:36.721Z,94.69
2022-11-27T05:35:36.714Z,94.53
2022-11-27T05:36:36.720Z,94.69
2022-11-27T05:37:36.701Z,94.18
2022-11-27T05:38:36.732Z,94.38
2022-11-27T05:39:36.704Z,94.38
2022-11-27T05:40:36.679Z,94.07
2022-11-27T05:41:36.744Z,94.12
2022-11-27T05:42:36.676Z,93.91
2022-11-27T05:43:36.659Z,93.97
2022-11-27T05:44:36.700Z,93.87
2022-11-27T05:45:36.670Z,93.87
2022-11-27T05:46:36.678Z,94.07
2022-11-27T05:47:36.645Z,94.12
2022-11-27T05:48:36.627Z,95.10
2022-11-27T05:49:36.620Z,94.59
2022-11-27T05:50:36.648Z,94.38
2022-11-27T05:51:36.602Z,94.07
2022-11-27T05:52:36.583Z,94.90
2022-11-27T05:53:36.588Z,95.04
2022-11-27T05:54:36.587Z,94.43
2022-11-27T05:55:36.575Z,94.63
2022-11-27T05:56:36.827Z,94.69
2022-11-27T05:57:36.599Z,94.73
2022-11-27T05:58:36.573Z,94.32
2022-11-27T05:59:36.541Z,94.22
2022-11-27T06:00:36.529Z,94.94
2022-11-27T06:01:36.556Z,94.63
2022-11-27T06:02:36.689Z,94.38
2022-11-27T06:03:37.397Z,94.38
2022-11-27T06:04:36.489Z,94.38
2022-11-27T06:05:36.515Z,94.94
2022-11-27T06:06:36.501Z,94.90
2022-11-27T06:07:36.555Z,94.59
2022-11-27T06:08:36.545Z,94.38
2022-11-27T06:09:36.478Z,94.38
2022-11-27T06:10:36.487Z,94.07
2022-11-27T06:11:36.484Z,93.76
2022-11-27T06:12:36.472Z,94.38
2022-11-27T06:13:36.528Z,94.48
2022-11-27T06:14:36.517Z,93.97
2022-11-27T06:15:36.453Z,94.01
2022-11-27T06:16:36.484Z,94.22
2022-11-27T06:17:36.434Z,94.43
2022-11-27T06:18:36.429Z,94.37
2022-11-27T06:19:36.408Z,94.98
2022-11-27T06:20:40.816Z,94.37
2022-11-27T06:21:37.384Z,94.47
2022-11-27T06:22:36.389Z,94.37
2022-11-27T06:23:36.385Z,95.19
2022-11-27T06:24:36.391Z,94.98
2022-11-27T06:25:36.379Z,94.72
2022-11-27T06:26:36.418Z,95.03
2022-11-27T06:27:36.350Z,94.98
2022-11-27T06:28:36.381Z,95.19
2022-11-27T06:29:36.393Z,95.50
2022-11-27T06:30:36.361Z,95.50
2022-11-27T06:31:36.341Z,95.14
2022-11-27T06:32:36.362Z,95.19
2022-11-27T06:33:36.314Z,95.19
2022-11-27T06:34:36.307Z,94.98
2022-11-27T06:35:36.301Z,94.89
2022-11-27T06:36:36.309Z,95.09
2022-11-27T06:37:36.438Z,95.19
2022-11-27T06:38:36.369Z,94.53
2022-11-27T06:39:36.283Z,94.89
2022-11-27T06:40:36.304Z,94.57
2022-11-27T06:41:36.252Z,94.98
2022-11-27T06:42:36.257Z,94.89
2022-11-27T06:43:36.248Z,94.57
2022-11-27T06:44:36.323Z,94.68
2022-11-27T06:45:36.338Z,94.89
2022-11-27T06:46:36.254Z,94.89
2022-11-27T06:47:36.231Z,94.78
2022-11-27T06:48:36.224Z,94.98
2022-11-27T06:49:36.217Z,95.40
2022-11-27T06:50:36.267Z,94.89
2022-11-27T06:51:36.217Z,95.04
2022-11-27T06:52:40.372Z,94.89
2022-11-27T06:53:36.195Z,94.32
2022-11-27T06:54:36.201Z,94.63
2022-11-27T06:55:36.160Z,95.04
2022-11-27T06:56:36.503Z,94.63
2022-11-27T06:57:36.155Z,94.84
2022-11-27T06:58:36.166Z,94.32
2022-11-27T06:59:36.159Z,94.53
2022-11-27T07:00:36.166Z,94.73
2022-11-27T07:01:36.493Z,94.22
2022-11-27T07:02:36.290Z,94.43
2022-11-27T07:03:36.126Z,94.01
2022-11-27T07:04:36.114Z,94.12
2022-11-27T07:05:36.106Z,94.22
2022-11-27T07:06:36.092Z,94.32
2022-11-27T07:07:39.659Z,94.12
2022-11-27T07:08:37.156Z,94.37
2022-11-27T07:09:36.091Z,94.89
2022-11-27T07:10:36.056Z,94.78
2022-11-27T07:11:36.072Z,94.98
2022-11-27T07:12:36.062Z,95.50
2022-11-27T07:13:36.052Z,95.36
2022-11-27T07:14:36.117Z,94.98
2022-11-27T07:15:36.019Z,94.47
2022-11-27T07:16:36.090Z,94.73
2022-11-27T07:17:36.090Z,94.28
2022-11-27T07:18:36.006Z,94.22
2022-11-27T07:19:36.008Z,94.01
2022-11-27T07:20:36.037Z,94.12
2022-11-27T07:21:35.959Z,94.07
2022-11-27T07:22:35.982Z,94.07
2022-11-27T07:23:35.986Z,94.07
2022-11-27T07:24:35.972Z,94.12
2022-11-27T07:25:35.958Z,93.87
2022-11-27T07:26:36.034Z,94.32
2022-11-27T07:27:35.944Z,94.18
2022-11-27T07:28:36.006Z,93.49
2022-11-27T07:29:35.948Z,93.70
2022-11-27T07:30:35.946Z,93.91
2022-11-27T07:31:35.964Z,94.16
2022-11-27T07:32:35.960Z,93.91
2022-11-27T07:33:35.944Z,94.22
2022-11-27T07:34:35.888Z,93.95
2022-11-27T07:35:35.888Z,94.73
2022-11-27T07:36:35.879Z,94.06
2022-11-27T07:37:35.904Z,93.95
2022-11-27T07:38:35.910Z,94.26
2022-11-27T07:40:00.813Z,94.43
2022-11-27T07:40:36.853Z,94.22
2022-11-27T07:41:35.867Z,93.39
2022-11-27T07:42:38.423Z,93.85
2022-11-27T07:43:35.838Z,94.12
2022-11-27T07:44:35.879Z,93.91
2022-11-27T07:45:35.859Z,92.87
2022-11-27T07:46:35.837Z,93.60
2022-11-27T07:47:35.817Z,93.08
2022-11-27T07:48:35.807Z,92.87
2022-11-27T07:49:35.850Z,93.04
2022-11-27T07:50:35.886Z,93.49
2022-11-27T07:51:35.793Z,93.49
2022-11-27T07:52:41.093Z,93.39
2022-11-27T07:53:36.786Z,93.08
2022-11-27T07:54:35.757Z,93.08
2022-11-27T07:55:35.749Z,93.35
2022-11-27T07:56:35.794Z,92.83
2022-11-27T07:57:35.733Z,92.97
2022-11-27T07:58:35.730Z,92.77
2022-11-27T07:59:35.715Z,92.77
2022-11-27T08:00:35.787Z,92.72
2022-11-27T08:01:35.788Z,92.87
2022-11-27T08:02:35.818Z,92.83
2022-11-27T08:03:35.705Z,92.87
2022-11-27T08:04:35.784Z,93.04
2022-11-27T08:05:35.727Z,92.72
2022-11-27T08:06:35.678Z,92.07
2022-11-27T08:07:35.707Z,93.10
2022-11-27T08:08:35.711Z,91.92
2022-11-27T08:09:35.639Z,90.99
2022-11-27T08:10:35.639Z,90.37
2022-11-27T08:11:35.620Z,90.78
2022-11-27T08:12:35.617Z,90.37
2022-11-27T08:13:35.634Z,89.19
2022-11-27T08:14:35.667Z,89.13
2022-11-27T08:15:35.632Z,89.29
2022-11-27T08:16:35.710Z,89.71
2022-11-27T08:17:35.576Z,89.67
2022-11-27T08:18:35.594Z,88.43
2022-11-27T08:19:35.589Z,88.95
2022-11-27T08:20:35.646Z,89.09
2022-11-27T08:21:35.599Z,89.05
2022-11-27T08:22:35.549Z,89.05
2022-11-27T08:23:35.558Z,88.02
2022-11-27T08:24:35.517Z,88.02
2022-11-27T08:25:35.512Z,88.59
2022-11-27T08:26:35.590Z,87.81
2022-11-27T08:27:35.540Z,88.84
2022-11-27T08:28:35.518Z,88.32
2022-11-27T08:29:35.509Z,88.84
2022-11-27T08:30:35.511Z,88.95
2022-11-27T08:31:35.552Z,88.06
2022-11-27T08:32:35.535Z,88.37
2022-11-27T08:33:35.481Z,87.95
2022-11-27T08:34:35.463Z,88.78
2022-11-27T08:35:35.541Z,88.74
2022-11-27T08:36:35.451Z,88.16
2022-11-27T08:37:35.508Z,88.57
2022-11-27T08:38:35.489Z,88.47
2022-11-27T08:39:35.438Z,88.06
2022-11-27T08:40:35.440Z,87.89
2022-11-27T08:41:35.438Z,89.34
2022-11-27T08:42:35.423Z,88.71
2022-11-27T08:43:35.396Z,89.44
2022-11-27T08:44:35.474Z,89.19
2022-11-27T08:45:35.433Z,88.98
2022-11-27T08:46:35.391Z,87.95
2022-11-27T08:47:35.380Z,87.65
2022-11-27T08:48:35.374Z,87.65
2022-11-27T08:49:37.010Z,87.23
2022-11-27T08:50:35.419Z,87.99
2022-11-27T08:51:35.374Z,88.26
2022-11-27T08:52:35.363Z,88.41
2022-11-27T08:53:35.402Z,88.71
2022-11-27T08:54:35.319Z,89.19
2022-11-27T08:55:35.358Z,88.26
2022-11-27T08:56:35.405Z,88.47
2022-11-27T08:57:35.315Z,87.40
2022-11-27T08:58:35.312Z,86.68
2022-11-27T08:59:35.283Z,85.91
2022-11-27T09:00:35.340Z,86.05
2022-11-27T09:01:35.378Z,86.12
2022-11-27T09:02:35.691Z,84.64
2022-11-27T09:03:35.309Z,84.64
2022-11-27T09:04:35.290Z,85.22
2022-11-27T09:05:35.242Z,84.31
2022-11-27T09:06:35.262Z,81.70
2022-11-27T09:07:35.321Z,81.49
2022-11-27T09:08:35.284Z,81.63
2022-11-27T09:09:35.278Z,82.29
2022-11-27T09:10:35.258Z,83.26
2022-11-27T09:11:35.211Z,83.26
2022-11-27T09:12:39.293Z,84.22
2022-11-27T09:13:36.273Z,85.19
2022-11-27T09:14:35.187Z,85.81
2022-11-27T09:15:35.233Z,86.36
2022-11-27T09:16:35.247Z,86.36
2022-11-27T09:17:35.167Z,87.13
2022-11-27T09:18:35.166Z,87.68
2022-11-27T09:19:35.203Z,88.37
2022-11-27T09:20:35.135Z,89.09
2022-11-27T09:21:35.124Z,88.02
2022-11-27T09:22:35.139Z,87.29
2022-11-27T09:23:35.133Z,86.47
2022-11-27T09:24:35.139Z,86.41
2022-11-27T09:25:35.204Z,86.92
2022-11-27T09:26:35.116Z,86.71
2022-11-27T09:27:35.089Z,86.92
2022-11-27T09:28:35.083Z,87.65
2022-11-27T09:29:35.079Z,87.34
2022-11-27T09:30:35.072Z,86.88
2022-11-27T09:31:35.182Z,87.81
2022-11-27T09:32:35.049Z,86.32
2022-11-27T09:33:35.057Z,86.36
2022-11-27T09:34:37.716Z,86.22
2022-11-27T09:35:35.057Z,85.23
2022-11-27T09:36:35.032Z,85.85
2022-11-27T09:37:35.076Z,86.71
2022-11-27T09:38:35.021Z,86.02
2022-11-27T09:39:35.003Z,85.71
2022-11-27T09:40:34.999Z,85.05
2022-11-27T09:41:35.045Z,84.33
2022-11-27T09:42:34.982Z,85.01
2022-11-27T09:43:35.047Z,83.67
2022-11-27T09:44:34.997Z,83.15
2022-11-27T09:45:35.005Z,82.54
2022-11-27T09:46:34.973Z,83.54
2022-11-27T09:47:39.796Z,84.06
2022-11-27T09:48:36.009Z,84.78
2022-11-27T09:49:34.927Z,85.23
2022-11-27T09:50:34.923Z,85.64
2022-11-27T09:51:34.915Z,86.16
2022-11-27T09:52:34.918Z,85.95
2022-11-27T09:53:34.904Z,86.36
2022-11-27T09:54:34.967Z,86.16
2022-11-27T09:55:34.889Z,85.09
2022-11-27T09:56:34.879Z,85.30
2022-11-27T09:57:34.937Z,84.22
2022-11-27T09:58:34.890Z,84.22
2022-11-27T09:59:34.869Z,84.33
2022-11-27T10:00:34.901Z,84.16
2022-11-27T10:01:44.198Z,84.27
2022-11-27T10:02:35.960Z,84.99
2022-11-27T10:03:34.902Z,83.85
2022-11-27T10:04:57.911Z,84.06
2022-11-27T10:05:36.100Z,84.12
2022-11-27T10:06:34.819Z,83.09
2022-11-27T10:07:34.827Z,83.15
2022-11-27T10:08:34.796Z,81.77
2022-11-27T10:09:34.818Z,81.26
2022-11-27T10:10:34.807Z,79.99
2022-11-27T10:11:34.832Z,80.05
2022-11-27T10:12:34.768Z,80.30
2022-11-27T10:13:34.832Z,80.16
2022-11-27T10:14:34.753Z,79.40
2022-11-27T10:15:34.749Z,77.99
2022-11-27T10:16:34.796Z,75.08
2022-11-27T10:17:34.784Z,73.68
2022-11-27T10:18:34.755Z,71.59
2022-11-27T10:19:34.735Z,69.31
2022-11-27T10:20:34.725Z,67.47
2022-11-27T10:21:34.722Z,67.61
2022-11-27T10:22:34.719Z,65.37
2022-11-27T10:23:34.744Z,66.28
2022-11-27T10:24:34.711Z,66.63
2022-11-27T10:25:34.682Z,63.98
2022-11-27T10:26:34.685Z,66.19
2022-11-27T10:27:34.682Z,64.96
2022-11-27T10:28:34.678Z,66.08
2022-11-27T10:29:34.752Z,66.96
2022-11-27T10:30:34.635Z,67.50
2022-11-27T10:31:34.714Z,67.94
2022-11-27T10:33:35.646Z,71.18
2022-11-27T10:34:34.626Z,72.14
2022-11-27T10:35:34.649Z,74.60
2022-11-27T10:36:34.593Z,76.07
2022-11-27T10:37:34.614Z,76.62
2022-11-27T10:38:34.586Z,75.76
2022-11-27T10:39:34.583Z,73.50
2022-11-27T10:40:34.551Z,74.94
2022-11-27T10:41:48.716Z,75.08
2022-11-27T10:42:35.544Z,76.59
2022-11-27T10:43:34.543Z,77.20
2022-11-27T10:44:34.544Z,76.90
2022-11-27T10:45:40.160Z,77.37
2022-11-27T10:46:35.663Z,77.37
2022-11-27T10:47:34.539Z,76.31
2022-11-27T10:48:34.528Z,75.38
2022-11-27T10:49:34.533Z,75.90
2022-11-27T10:50:34.521Z,75.97
2022-11-27T10:51:50.140Z,76.25
2022-11-27T10:52:57.109Z,75.93
2022-11-27T10:53:34.500Z,75.15
2022-11-27T10:54:34.464Z,75.97
2022-11-27T10:55:34.474Z,76.48
2022-11-27T10:56:34.491Z,76.18
2022-11-27T10:57:34.450Z,76.21
2022-11-27T10:58:34.517Z,76.90
2022-11-27T10:59:34.867Z,76.38
2022-11-27T11:00:34.443Z,75.56
2022-11-27T11:01:34.505Z,75.90
2022-11-27T11:02:34.561Z,76.21
2022-11-27T11:03:34.415Z,77.03
2022-11-27T11:04:48.357Z,77.41
2022-11-27T11:05:56.969Z,76.38
2022-11-27T11:06:35.386Z,76.73
2022-11-27T11:07:34.472Z,76.52
2022-11-27T11:08:34.398Z,76.76
2022-11-27T11:09:34.394Z,76.42
2022-11-27T11:10:34.547Z,77.69
2022-11-27T11:11:34.360Z,76.45
2022-11-27T11:12:34.351Z,77.75
2022-11-27T11:13:34.355Z,77.17
2022-11-27T11:14:34.346Z,77.38
2022-11-27T11:15:34.369Z,77.58
2022-11-27T11:16:35.770Z,79.16
2022-11-27T11:17:34.461Z,78.44
2022-11-27T11:18:34.365Z,78.55
2022-11-27T11:19:34.321Z,78.51
2022-11-27T11:20:34.305Z,78.75
2022-11-27T11:21:34.293Z,79.44
2022-11-27T11:22:38.068Z,78.00
2022-11-27T11:23:34.280Z,78.51
2022-11-27T11:24:34.290Z,80.02
2022-11-27T11:25:34.274Z,78.54
2022-11-27T11:26:34.252Z,78.85
2022-11-27T11:27:34.269Z,76.79
2022-11-27T11:28:39.368Z,77.92
2022-11-27T11:29:35.228Z,77.51
2022-11-27T11:30:34.243Z,76.79
2022-11-27T11:31:34.285Z,77.10
2022-11-27T11:32:34.206Z,76.25
2022-11-27T11:33:34.200Z,76.90
2022-11-27T11:34:34.297Z,76.79
2022-11-27T11:35:34.229Z,76.48
2022-11-27T11:36:34.190Z,76.86
2022-11-27T11:37:34.177Z,78.00
2022-11-27T11:38:34.172Z,77.58
2022-11-27T11:39:34.161Z,78.20
2022-11-27T11:40:34.195Z,78.61
2022-11-27T11:41:34.144Z,78.65
2022-11-27T11:42:34.139Z,78.44
2022-11-27T11:43:34.137Z,78.92
2022-11-27T11:44:34.119Z,77.93
2022-11-27T11:45:34.185Z,78.65
2022-11-27T11:46:34.220Z,78.75
2022-11-27T11:47:34.111Z,78.86
2022-11-27T11:48:34.104Z,78.30
2022-11-27T11:49:34.092Z,78.41
2022-11-27T11:50:34.145Z,77.79
2022-11-27T11:51:34.079Z,78.92
2022-11-27T11:52:34.140Z,78.30
2022-11-27T11:53:34.090Z,78.92
2022-11-27T11:54:34.076Z,77.79
2022-11-27T11:55:34.051Z,78.10
2022-11-27T11:56:34.051Z,77.58
2022-11-27T11:57:34.075Z,78.61
2022-11-27T11:58:34.089Z,78.61
2022-11-27T11:59:34.027Z,77.28
2022-11-27T12:00:48.694Z,77.28
2022-11-27T12:01:35.020Z,78.68
2022-11-27T12:02:34.094Z,78.47
2022-11-27T12:03:33.979Z,77.41
2022-11-27T12:04:34.085Z,78.58
2022-11-27T12:05:33.983Z,77.86
2022-11-27T12:06:34.029Z,77.48
2022-11-27T12:07:34.015Z,78.27
2022-11-27T12:08:33.985Z,78.00
2022-11-27T12:09:33.952Z,78.20
2022-11-27T12:10:34.004Z,78.41
2022-11-27T12:11:33.958Z,78.78
2022-11-27T12:12:33.935Z,78.78
2022-11-27T12:13:33.942Z,78.47
2022-11-27T12:14:33.908Z,78.27
2022-11-27T12:15:33.922Z,78.27
2022-11-27T12:16:34.206Z,78.37
2022-11-27T12:17:33.924Z,78.51
2022-11-27T12:18:33.909Z,79.03
2022-11-27T12:19:33.883Z,78.58
2022-11-27T12:20:33.890Z,78.47
2022-11-27T12:21:33.868Z,78.37
2022-11-27T12:22:33.975Z,78.23
2022-11-27T12:23:33.873Z,77.31
2022-11-27T12:24:33.887Z,76.48
2022-11-27T12:25:33.829Z,76.59
2022-11-27T12:26:33.840Z,77.45
2022-11-27T12:27:33.827Z,77.55
2022-11-27T12:28:33.892Z,77.65
2022-11-27T12:29:33.828Z,77.96
2022-11-27T12:30:33.805Z,78.06
2022-11-27T12:31:33.886Z,78.78
2022-11-27T12:32:33.793Z,77.51
2022-11-27T12:33:33.814Z,77.92
2022-11-27T12:34:33.853Z,77.20
2022-11-27T12:35:33.770Z,78.81
2022-11-27T12:36:33.759Z,77.00
2022-11-27T12:37:33.780Z,76.76
2022-11-27T12:38:33.804Z,77.48
2022-11-27T12:39:33.752Z,76.35
2022-11-27T12:40:33.790Z,77.34
2022-11-27T12:41:33.736Z,76.00
2022-11-27T12:42:33.719Z,76.48
2022-11-27T12:43:33.703Z,75.66
2022-11-27T12:44:33.703Z,75.76
2022-11-27T12:45:33.747Z,74.94
2022-11-27T12:46:33.794Z,75.59
2022-11-27T12:47:38.663Z,75.70
2022-11-27T12:48:34.683Z,75.70
2022-11-27T12:49:33.638Z,75.90
2022-11-27T12:50:33.671Z,76.55
2022-11-27T12:51:33.671Z,76.04
2022-11-27T12:52:33.720Z,76.72
2022-11-27T12:53:33.645Z,76.82